Latest Weather Observations for Bombala AWS

IDN60801

Issued at 11:02 pm EST Saturday 30 April 2016 (issued every 30 minutes, with the page automatically refreshed every 10 minutes)

About weather observations | Map of weather stations | Latest weather observations for NSW | Other Formats
Station Details ID: 070328 Name: BOMBALA AWS Lat: -37.00 Lon: 149.23 Height: 760.5 m
Data from the previous 72 hours. | See also: Recent months at Bombala AWS
Date/Time
EST
Temp
°C
App
Temp
°C
Dew
Point
Rel
Hum
%
Delta-T
°C
Wind Press
QNH
hPa
Press
MSL
hPa
Rain
since 9 am
mm
Dir
 
Spd
km/h
Gust
km/h
Spd
kts
Gust
kts
30/11:00pm 11.6 10.8 11.1 97 0.3 NW 6 7 3 4 1015.5 1014.5 0.0
30/10:30pm 10.9 9.8 10.7 99 0.1 NW 7 9 4 5 1015.9 1015.0 0.0
30/10:00pm 11.7 10.9 11.1 96 0.3 NNW 6 6 3 3 1016.0 1015.1 0.0
30/09:30pm 11.7 10.8 11.5 99 0.1 NNW 7 9 4 5 1016.2 1015.3 0.0
30/09:00pm 11.5 10.3 11.5 100 0.0 NNW 9 9 5 5 1016.1 1015.2 0.0
30/08:30pm 11.5 11.2 11.5 100 0.0 NW 4 6 2 3 1016.2 1015.3 0.0
30/08:00pm 12.4 12.4 12.4 100 0.0 NW 4 4 2 2 1016.2 1015.3 0.0
30/07:30pm 14.4 15.1 14.4 100 0.0 NE 4 6 2 3 1016.3 1015.4 0.0
30/07:00pm 15.0 15.8 14.8 99 0.1 NE 4 6 2 3 1016.4 1015.5 0.0
30/06:30pm 15.8 16.7 15.0 95 0.5 NE 4 6 2 3 1016.4 1015.5 0.0
30/06:00pm 16.9 17.7 15.8 93 0.7 N 6 13 3 7 1016.4 1015.5 0.0
30/05:30pm 16.8 17.4 15.7 93 0.7 NE 7 11 4 6 1016.2 1015.3 0.0
30/05:00pm 17.1 17.3 14.7 86 1.4 NE 7 11 4 6 1016.0 1015.1 0.0
30/04:30pm 18.0 17.8 12.9 72 3.0 NE 6 11 3 6 1016.0 1015.1 0.0
30/04:00pm 18.9 18.5 12.9 68 3.5 NE 7 9 4 5 1016.1 1015.2 0.0
30/03:30pm 18.7 17.3 12.2 66 3.7 NNE 11 13 6 7 1016.0 1015.1 0.0
30/03:00pm 20.0 19.7 12.7 63 4.3 N 6 9 3 5 1016.2 1015.3 0.0
30/02:30pm 17.7 15.8 13.0 74 2.7 NW 15 26 8 14 1016.6 1015.8 0.0
30/02:00pm 19.6 17.4 10.9 57 4.9 NNW 13 17 7 9 1016.4 1015.5 0.0
30/01:30pm 20.1 18.7 10.8 55 5.3 WNW 9 13 5 7 1016.4 1015.5 0.0
30/01:00pm 20.8 18.6 10.9 53 5.6 NW 13 19 7 10 1016.6 1015.8 0.0
30/12:30pm 20.6 18.8 11.0 54 5.5 NW 11 17 6 9 1017.2 1016.3 0.0
30/12:00pm 21.4 19.7 12.3 56 5.3 NW 13 17 7 9 1017.5 1016.6 0.0
30/11:30am 20.7 19.1 12.7 60 4.7 NNW 13 17 7 9 1017.9 1017.1 0.0
30/11:00am 19.7 18.9 13.9 69 3.5 WNW 11 19 6 10 1018.5 1017.6 0.0
30/10:30am 17.5 17.2 13.4 77 2.4 NW 7 11 4 6 1018.9 1018.0 0.0
30/10:00am 17.1 15.6 13.0 77 2.4 NW 13 17 7 9 1019.1 1018.3 0.0
30/09:30am 17.4 16.7 14.3 82 1.8 NNW 11 15 6 8 1019.1 1018.3 0.0
30/09:00am 16.4 16.0 14.2 87 1.3 NW 9 11 5 6 1019.1 1018.3 0.0
30/08:30am 15.3 15.5 14.8 97 0.3 NW 7 11 4 6 1019.3 1018.5 0.0
30/08:00am 12.8 12.5 12.8 100 0.0 NNW 6 7 3 4 1019.2 1018.4 0.0
30/07:30am 11.8 11.0 11.8 100 0.0 NNW 7 9 4 5 1018.7 1017.8 0.0
30/07:00am 10.2 9.0 10.2 100 0.0 NW 7 9 4 5 1018.5 1017.6 0.0
30/06:30am 11.7 11.5 11.7 100 0.0 NNW 4 6 2 3 1018.2 1017.3 0.0
30/06:00am 11.8 11.0 11.8 100 0.0 NNW 7 9 4 5 1018.2 1017.3 0.0
30/05:30am 12.0 11.5 12.0 100 0.0 NNW 6 7 3 4 1018.2 1017.3 0.0
30/05:00am 11.5 10.8 11.5 100 0.0 NNW 6 7 3 4 1017.8 1017.0 0.0
30/04:30am 11.9 11.7 11.9 100 0.0 NW 4 6 2 3 1017.5 1016.6 0.0
30/04:00am 12.9 13.1 12.9 100 0.0 NW 4 6 2 3 1017.0 1016.1 0.0
30/03:30am 12.7 12.4 12.7 100 0.0 WNW 6 7 3 4 1017.2 1016.3 0.0
30/03:00am 12.4 11.4 12.4 100 0.0 NNW 9 9 5 5 1017.5 1016.6 0.0
30/02:30am 12.8 12.3 12.8 100 0.0 NNW 7 7 4 4 1017.6 1016.7 0.0
30/02:00am 13.4 13.3 13.4 100 0.0 NNW 6 7 3 4 1017.5 1016.6 0.0
30/01:30am 13.1 12.7 13.1 100 0.0 N 7 9 4 5 1017.7 1016.8 0.0
30/01:00am 13.5 13.2 13.3 99 0.1 N 7 9 4 5 1017.6 1016.7 0.0
30/12:30am 13.9 13.7 13.0 94 0.5 NNW 6 7 3 4 1017.8 1017.0 0.0
30/12:00am 14.1 13.7 12.3 89 1.0 NW 6 6 3 3 1017.7 1016.8 0.0
 
Date/Time
EST
Temp
°C
App
Temp
°C
Dew
Point
Rel
Hum
%
Delta-T
°C
Wind Press
QNH
hPa
Press
MSL
hPa
Rain
since 9 am
mm
Dir
 
Spd
km/h
Gust
km/h
Spd
kts
Gust
kts
29/11:30pm 14.0 13.4 11.7 86 1.3 NNW 6 7 3 4 1017.7 1016.8 0.0
29/11:00pm 14.5 13.7 11.7 83 1.6 NNW 7 9 4 5 1018.2 1017.3 0.0
29/10:30pm 14.7 13.5 11.7 82 1.7 NNW 9 9 5 5 1018.3 1017.4 0.0
29/10:00pm 15.1 14.3 11.1 77 2.2 NNW 6 9 3 5 1018.4 1017.5 0.0
29/09:30pm 15.7 14.8 10.7 72 2.8 NNW 6 9 3 5 1018.4 1017.5 0.0
29/09:00pm 16.0 14.2 10.7 71 2.9 NNW 11 13 6 7 1018.5 1017.6 0.0
29/08:30pm 16.4 14.5 10.5 68 3.3 NNW 11 15 6 8 1018.5 1017.6 0.0
29/08:00pm 16.9 14.9 10.3 65 3.6 NNW 11 17 6 9 1018.2 1017.3 0.0
29/07:30pm 17.3 13.7 10.0 62 4.0 NNW 19 26 10 14 1017.9 1017.1 0.0
29/07:00pm 17.2 14.6 9.4 60 4.2 NNW 13 17 7 9 1017.9 1017.1 0.0
29/06:30pm 18.3 14.9 9.1 55 5.0 NNW 17 22 9 12 1017.8 1017.0 0.0
29/06:00pm 17.8 15.9 9.2 57 4.7 NNW 9 11 5 6 1017.7 1016.8 0.0
29/05:30pm 18.3 14.9 9.1 55 5.0 NNW 17 22 9 12 1017.4 1016.5 0.0
29/05:00pm 18.6 15.1 8.8 53 5.3 NNW 17 20 9 11 1017.3 1016.4 0.0
29/04:30pm 19.2 15.8 9.1 52 5.5 NNW 17 20 9 11 1017.4 1016.5 0.0
29/04:00pm 20.1 15.6 8.4 47 6.3 NNW 22 33 12 18 1017.4 1016.5 0.0
29/03:30pm 21.4 16.1 8.3 43 7.1 NW 26 35 14 19 1017.7 1016.8 0.0
29/03:00pm 21.4 16.6 8.7 44 7.0 NW 24 32 13 17 1017.2 1016.3 0.0
29/02:30pm 22.3 16.3 8.8 42 7.4 NW 30 41 16 22 1017.4 1016.5 0.0
29/02:00pm 21.7 17.8 9.3 45 6.9 NW 20 30 11 16 1017.3 1016.4 0.0
29/01:30pm 22.6 17.6 9.4 43 7.4 NW 26 33 14 18 1017.7 1016.8 0.0
29/01:23pm 23.4 18.2 10.1 43 7.5 NNW 28 48 15 26 1017.7 1016.8 0.0
29/01:00pm 22.7 17.5 10.2 45 7.1 NNW 28 37 15 20 1018.0 1017.2 0.0
29/12:30pm 22.0 17.6 10.5 48 6.5 NNW 24 33 13 18 1018.8 1017.9 0.0
29/12:00pm 21.1 15.6 10.6 51 5.9 NW 30 39 16 21 1019.3 1018.5 0.0
29/11:30am 21.2 16.4 11.8 55 5.4 NNW 28 39 15 21 1020.0 1019.1 0.0
29/11:00am 19.8 16.8 12.1 61 4.4 NNW 19 26 10 14 1020.5 1019.7 0.0
29/10:30am 19.6 17.0 12.1 62 4.3 NNW 17 20 9 11 1021.1 1020.2 0.0
29/10:00am 18.2 17.2 12.2 68 3.4 NNW 9 13 5 7 1021.3 1020.5 0.0
29/09:30am 15.9 15.4 12.6 81 1.9 NW 7 9 4 5 1021.7 1020.9 0.0
29/09:00am 14.3 13.7 11.8 85 1.4 NNE 6 7 3 4 1022.3 1021.6 0.0
29/08:30am 12.2 11.4 11.1 93 0.6 ENE 6 7 3 4 1022.5 1021.7 0.0
29/08:00am 10.3 10.4 10.1 99 0.1 CALM 0 0 0 0 1022.3 1021.6 0.0
29/07:30am 8.3 7.2 8.3 100 0.0 NNW 4 4 2 2 1022.2 1021.4 0.0
29/07:00am 8.5 7.0 8.5 100 0.0 NNW 6 7 3 4 1022.1 1021.3 0.0
29/06:30am 8.3 6.6 8.3 100 0.0 NNW 7 9 4 5 1022.1 1021.3 0.0
29/06:00am 8.3 7.2 8.3 100 0.0 NW 4 6 2 3 1022.1 1021.3 0.0
29/05:30am 7.9 6.3 7.9 100 0.0 NW 6 7 3 4 1021.9 1021.1 0.0
29/05:00am 8.3 7.2 8.3 100 0.0 NW 4 6 2 3 1021.9 1021.1 0.0
29/04:30am 7.4 5.5 7.4 100 0.0 NNW 7 7 4 4 1021.8 1021.0 0.0
29/04:00am 8.0 6.4 8.0 100 0.0 NW 6 7 3 4 1021.8 1021.0 0.0
29/03:30am 7.1 5.1 7.1 100 0.0 NW 7 11 4 6 1021.9 1021.1 0.0
29/03:00am 6.8 4.9 6.8 100 0.0 NNW 6 7 3 4 1022.1 1021.3 0.0
29/02:30am 7.0 6.3 7.0 100 0.0 CALM 0 0 0 0 1022.6 1021.8 0.0
29/02:00am 8.6 8.3 8.5 99 0.1 CALM 0 2 0 1 1022.8 1022.0 0.0
29/01:30am 8.6 7.5 8.6 100 0.0 NW 4 6 2 3 1022.8 1022.0 0.0
29/01:00am 8.7 8.0 8.7 100 0.0 NNW 2 4 1 2 1022.8 1022.0 0.0
29/12:30am 9.8 9.0 9.7 99 0.1 N 4 6 2 3 1023.0 1022.2 0.0
29/12:00am 9.8 8.6 9.7 99 0.1 N 6 7 3 4 1023.2 1022.4 0.0
 
Date/Time
EST
Temp
°C
App
Temp
°C
Dew
Point
Rel
Hum
%
Delta-T
°C
Wind Press
QNH
hPa
Press
MSL
hPa
Rain
since 9 am
mm
Dir
 
Spd
km/h
Gust
km/h
Spd
kts
Gust
kts
28/11:30pm 9.1 7.2 9.1 100 0.0 NNW 9 11 5 6 1023.5 1022.8 0.0
28/11:00pm 8.8 7.2 8.7 99 0.1 NNW 7 9 4 5 1023.7 1023.0 0.0
28/10:30pm 9.9 8.9 8.8 93 0.6 W 4 4 2 2 1023.6 1022.9 0.0
28/10:00pm 9.9 8.9 8.8 93 0.6 W 4 6 2 3 1023.7 1023.0 0.0
28/09:30pm 11.9 11.7 9.1 83 1.5 CALM 0 0 0 0 1023.9 1023.1 0.0
28/09:00pm 11.6 10.6 9.0 84 1.3 W 4 6 2 3 1023.9 1023.1 0.0
28/08:30pm 12.7 12.2 9.2 79 1.8 NNW 2 4 1 2 1023.5 1022.8 0.0
28/08:00pm 12.5 11.3 8.2 75 2.2 NNE 4 4 2 2 1023.7 1023.0 0.0
28/07:30pm 14.0 12.4 8.6 70 2.8 NNE 7 9 4 5 1023.4 1022.6 0.0
28/07:00pm 14.8 13.4 9.0 68 3.1 WNW 6 6 3 3 1023.2 1022.4 0.0
28/06:30pm 14.4 11.6 8.6 68 3.0 W 13 15 7 8 1023.1 1022.3 0.0
28/06:00pm 15.9 12.4 8.9 63 3.7 W 17 20 9 11 1022.9 1022.1 0.0
28/05:30pm 15.9 13.1 8.4 61 4.0 W 13 17 7 9 1022.7 1021.9 0.0
28/05:00pm 17.9 14.9 7.9 52 5.3 WSW 13 15 7 8 1022.5 1021.7 0.0
28/04:30pm 20.6 18.2 8.6 46 6.5 W 11 15 6 8 1022.3 1021.6 0.0
28/04:00pm 20.6 16.4 7.6 43 6.9 WNW 19 24 10 13 1022.3 1021.6 0.0
28/03:30pm 21.6 17.0 8.1 42 7.3 W 22 28 12 15 1022.2 1021.4 0.0
28/03:00pm 22.0 17.3 7.8 40 7.7 WNW 22 32 12 17 1022.0 1021.2 0.0
28/02:30pm 22.5 18.4 7.9 39 7.9 NW 19 24 10 13 1021.8 1021.0 0.0
28/02:00pm 22.7 19.2 8.8 41 7.7 WNW 17 26 9 14 1021.9 1021.1 0.0
28/01:30pm 21.8 16.9 8.3 42 7.4 NW 24 32 13 17 1022.3 1021.6 0.0
28/01:00pm 22.4 19.4 9.2 43 7.3 WNW 15 24 8 13 1022.7 1021.9 0.0
28/12:30pm 22.1 18.3 8.9 43 7.3 WNW 19 33 10 18 1022.8 1022.0 0.0
28/12:00pm 20.9 16.6 9.5 48 6.3 NW 22 32 12 17 1023.1 1022.3 0.0
28/11:30am 20.4 16.5 9.3 49 6.1 NW 20 32 11 17 1023.4 1022.6 0.0
28/11:00am 19.9 16.8 8.9 49 6.0 NW 15 20 8 11 1023.7 1023.0 0.0
28/10:30am 19.4 17.0 9.9 54 5.3 NW 13 19 7 10 1024.0 1023.2 0.0
28/10:00am 18.4 16.1 10.3 59 4.5 NW 13 17 7 9 1024.0 1023.2 0.0
28/09:30am 16.6 14.6 10.2 66 3.5 NNW 11 15 6 8 1024.1 1023.3 0.0
28/09:00am 15.0 13.4 11.4 79 2.0 NNW 11 13 6 7 1024.2 1023.4 0.0
28/08:30am 13.1 10.7 9.9 81 1.7 NW 13 17 7 9 1024.1 1023.3 0.0
28/08:00am 11.1 10.0 10.0 93 0.6 NW 6 7 3 4 1023.9 1023.1 0.0
28/07:30am 9.4 7.9 9.3 99 0.1 NW 7 11 4 6 1023.5 1022.8 0.0
28/07:00am 7.1 5.7 7.1 100 0.0 N 4 6 2 3 1023.2 1022.4 0.0
28/06:30am 5.8 3.5 5.7 99 0.0 N 7 9 4 5 1023.1 1022.3 0.0
28/06:00am 7.0 3.4 6.9 99 0.0 WNW 15 15 8 8 1023.2 1022.4 0.0
28/05:30am 7.5 5.2 7.4 99 0.0 WNW 9 9 5 5 1023.3 1022.5 0.0
28/05:00am 7.5 5.1 6.9 96 0.3 NNW 9 9 5 5 1023.1 1022.3 0.0
28/04:30am 7.3 5.9 7.2 99 0.0 NE 4 6 2 3 1023.0 1022.2 0.0
28/04:00am 8.8 5.6 8.4 97 0.2 N 15 17 8 9 1022.6 1021.8 0.0
28/03:30am 7.4 3.9 7.3 99 0.0 NNW 15 15 8 8 1022.3 1021.6 0.0
28/03:00am 7.6 4.6 7.5 99 0.0 NW 13 13 7 7 1022.6 1021.8 0.0
28/02:30am 8.2 5.2 7.6 96 0.3 NNW 13 15 7 8 1022.9 1022.1 0.0
28/02:00am 10.5 7.0 8.6 88 1.0 NW 17 19 9 10 1023.0 1022.2 0.0
28/01:30am 9.7 6.0 8.1 90 0.8 NW 17 19 9 10 1022.8 1022.0 0.0
28/01:00am 8.7 5.7 7.6 93 0.5 NW 13 15 7 8 1022.7 1021.9 0.0
28/12:30am 8.3 6.0 7.5 95 0.4 NNW 9 11 5 6 1022.9 1022.1 0.0
28/12:00am 7.6 4.4 6.9 95 0.3 NNW 13 15 7 8 1023.2 1022.4 0.0
 
Date/Time
EST
Temp
°C
App
Temp
°C
Dew
Point
Rel
Hum
%
Delta-T
°C
Wind Press
QNH
hPa
Press
MSL
hPa
Rain
since 9 am
mm
Dir
 
Spd
km/h
Gust
km/h
Spd
kts
Gust
kts
27/11:30pm 7.0 5.0 7.0 100 0.0 NNW 7 11 4 6 1023.3 1022.5 0.0

Other Formats:

Comma delimited format used in spreadsheet applications
http://www.bom.gov.au/fwo/IDN60801/IDN60801.94929.axf

JavaScript Object Notation format (JSON) in row-major order
http://www.bom.gov.au/fwo/IDN60801/IDN60801.94929.json